createdAt,value
2018-12-25T00:01:33.010Z,102370.86
2018-12-25T00:03:52.553Z,102372.05
2018-12-25T00:06:12.150Z,102368.26
2018-12-25T00:08:31.520Z,102331.07
2018-12-25T00:10:50.976Z,102369.70
2018-12-25T00:13:10.334Z,102366.23
2018-12-25T00:15:29.848Z,102369.55
2018-12-25T00:17:51.732Z,102354.06
2018-12-25T00:20:12.467Z,102374.84
2018-12-25T00:22:32.160Z,102374.69
2018-12-25T00:24:55.549Z,102386.23
2018-12-25T00:27:14.689Z,102383.12
2018-12-25T00:29:34.324Z,102387.42
2018-12-25T00:31:53.689Z,102376.00
2018-12-25T00:34:12.850Z,102394.31
2018-12-25T00:36:32.138Z,102398.50
2018-12-25T00:38:52.215Z,102396.51
2018-12-25T00:41:11.920Z,102407.34
2018-12-25T00:43:32.086Z,102410.63
2018-12-25T00:45:51.723Z,102408.23
2018-12-25T00:48:11.639Z,102410.22
2018-12-25T00:50:31.632Z,102425.41
2018-12-25T00:52:51.057Z,102420.23
2018-12-25T00:55:38.536Z,102422.53
2018-12-25T00:57:55.607Z,102415.06
2018-12-25T01:00:14.814Z,102423.92
2018-12-25T01:02:34.196Z,102413.63
2018-12-25T01:04:53.761Z,102411.16
2018-12-25T01:07:13.421Z,102402.93
2018-12-25T01:09:33.068Z,102397.34
2018-12-25T01:11:52.356Z,102398.58
2018-12-25T01:14:11.708Z,102398.03
2018-12-25T01:18:49.643Z,102391.39
2018-12-25T01:21:11.646Z,102389.69
2018-12-25T01:23:31.531Z,102399.28
2018-12-25T01:25:51.258Z,102408.88
2018-12-25T01:28:09.368Z,102408.52
2018-12-25T01:30:29.087Z,102413.39
2018-12-25T01:32:48.660Z,102417.80
2018-12-25T01:35:07.927Z,102402.16
2018-12-25T01:37:27.588Z,102413.55
2018-12-25T01:39:47.092Z,102418.52
2018-12-25T01:42:06.601Z,102426.58
2018-12-25T01:44:25.970Z,102429.47
2018-12-25T01:46:45.354Z,102432.30
2018-12-25T01:49:04.588Z,102435.59
2018-12-25T01:51:12.457Z,102434.11
2018-12-25T01:53:29.707Z,102427.23
2018-12-25T01:55:48.547Z,102431.10
2018-12-25T01:58:08.133Z,102404.64
2018-12-25T02:00:27.354Z,102439.47
2018-12-25T02:02:46.853Z,102448.86
2018-12-25T02:05:06.410Z,102450.10
2018-12-25T02:07:26.183Z,102453.21
2018-12-25T02:09:45.953Z,102457.99
2018-12-25T02:12:05.186Z,102436.57
2018-12-25T02:14:24.954Z,102446.22
2018-12-25T02:16:44.559Z,102452.94
2018-12-25T02:19:04.181Z,102443.94
2018-12-25T02:21:22.262Z,102435.76
2018-12-25T02:23:41.751Z,102430.52
2018-12-25T02:26:01.096Z,102428.70
2018-12-25T02:28:20.201Z,102425.11
2018-12-25T02:30:27.966Z,102431.16
2018-12-25T02:32:47.503Z,102417.34
2018-12-25T02:35:07.309Z,102395.39
2018-12-25T02:37:26.337Z,102424.17
2018-12-25T02:39:46.103Z,102413.91
2018-12-25T02:42:05.180Z,102423.73
2018-12-25T02:44:25.027Z,102412.36
2018-12-25T02:46:44.920Z,102414.38
2018-12-25T02:49:03.983Z,102418.59
2018-12-25T02:51:23.841Z,102419.83
2018-12-25T02:53:42.794Z,102414.63
2018-12-25T02:56:21.431Z,102413.64
2018-12-25T02:58:42.551Z,102405.34
2018-12-25T03:01:02.415Z,102402.56
2018-12-25T03:03:21.934Z,102405.55
2018-12-25T03:05:41.459Z,102388.72
2018-12-25T03:08:01.621Z,102416.16
2018-12-25T03:10:21.548Z,102410.11
2018-12-25T03:12:40.731Z,102407.14
2018-12-25T03:15:00.533Z,102404.55
2018-12-25T03:17:19.857Z,102375.66
2018-12-25T03:19:39.104Z,102398.37
2018-12-25T03:21:58.513Z,102396.66
2018-12-25T03:24:17.892Z,102393.17
2018-12-25T03:26:37.114Z,102377.01
2018-12-25T03:28:56.608Z,102395.23
2018-12-25T03:31:16.394Z,102397.47
2018-12-25T03:33:36.697Z,102394.60
2018-12-25T03:35:56.472Z,102394.27
2018-12-25T03:38:15.812Z,102393.39
2018-12-25T03:40:35.331Z,102390.61
2018-12-25T03:42:54.990Z,102399.94
2018-12-25T03:45:14.147Z,102403.21
2018-12-25T03:47:33.618Z,102405.30
2018-12-25T03:49:53.053Z,102403.19
2018-12-25T03:52:12.454Z,102398.38
2018-12-25T03:54:32.184Z,102400.60
2018-12-25T03:56:51.490Z,102396.80
2018-12-25T03:59:10.751Z,102394.22
2018-12-25T04:01:30.197Z,102393.20
2018-12-25T04:03:48.171Z,102397.30
2018-12-25T04:06:07.943Z,102402.27
2018-12-25T04:08:26.900Z,102404.86
2018-12-25T04:10:46.375Z,102401.50
2018-12-25T04:13:05.807Z,102402.33
2018-12-25T04:15:25.004Z,102415.19
2018-12-25T04:17:44.824Z,102419.04
2018-12-25T04:20:04.471Z,102411.78
2018-12-25T04:22:24.326Z,102405.44
2018-12-25T04:24:43.996Z,102402.05
2018-12-25T04:27:03.922Z,102404.56
2018-12-25T04:29:23.074Z,102407.77
2018-12-25T04:31:42.450Z,102409.59
2018-12-25T04:34:01.881Z,102407.50
2018-12-25T04:36:20.961Z,102411.44
2018-12-25T04:38:40.426Z,102406.59
2018-12-25T04:41:00.374Z,102393.83
2018-12-25T04:43:20.423Z,102408.30
2018-12-25T04:45:39.991Z,102407.01
2018-12-25T04:47:59.638Z,102409.92
2018-12-25T04:50:19.274Z,102408.45
2018-12-25T04:52:38.611Z,102390.22
2018-12-25T04:54:58.130Z,102415.46
2018-12-25T04:57:17.095Z,102416.14
2018-12-25T04:59:36.188Z,102415.97
2018-12-25T05:01:55.301Z,102413.66
2018-12-25T05:04:14.890Z,102414.42
2018-12-25T05:06:34.304Z,102409.60
2018-12-25T05:08:53.763Z,102381.97
2018-12-25T05:11:11.703Z,102408.16
2018-12-25T05:13:30.852Z,102410.13
2018-12-25T05:15:48.729Z,102417.44
2018-12-25T05:18:08.307Z,102418.61
2018-12-25T05:20:26.260Z,102414.33
2018-12-25T05:22:45.661Z,102415.27
2018-12-25T05:24:53.708Z,102419.58
2018-12-25T05:27:13.094Z,102424.75
2018-12-25T05:29:32.619Z,102417.94
2018-12-25T05:31:51.619Z,102416.77
2018-12-25T05:34:11.719Z,102418.50
2018-12-25T05:36:30.973Z,102410.66
2018-12-25T05:38:50.667Z,102404.09
2018-12-25T05:41:10.054Z,102410.52
2018-12-25T05:43:29.518Z,102419.84
2018-12-25T05:45:49.075Z,102429.61
2018-12-25T05:48:08.522Z,102426.15
2018-12-25T05:50:28.683Z,102408.03
2018-12-25T05:52:48.262Z,102428.80
2018-12-25T05:55:07.150Z,102430.02
2018-12-25T05:57:26.130Z,102426.06
2018-12-25T05:59:45.107Z,102428.11
2018-12-25T06:02:05.048Z,102426.26
2018-12-25T06:04:24.540Z,102420.06
2018-12-25T06:06:43.972Z,102420.37
2018-12-25T06:09:04.385Z,102433.16
2018-12-25T06:11:23.826Z,102439.93
2018-12-25T06:13:41.828Z,102435.11
2018-12-25T06:16:01.198Z,102449.03
2018-12-25T06:18:20.231Z,102422.72
2018-12-25T06:20:39.874Z,102449.88
2018-12-25T06:22:59.581Z,102407.83
2018-12-25T06:25:18.854Z,102449.88
2018-12-25T06:27:38.491Z,102442.47
2018-12-25T06:29:56.308Z,102412.73
2018-12-25T06:32:16.264Z,102438.60
2018-12-25T06:34:35.667Z,102435.08
2018-12-25T06:36:55.270Z,102444.43
2018-12-25T06:39:14.896Z,102443.39
2018-12-25T06:41:34.475Z,102410.92
2018-12-25T06:43:54.223Z,102442.67
2018-12-25T06:46:13.483Z,102436.87
2018-12-25T06:48:32.682Z,102422.28
2018-12-25T06:50:52.179Z,102424.39
2018-12-25T06:53:11.544Z,102416.64
2018-12-25T06:55:31.081Z,102426.18
2018-12-25T06:57:50.337Z,102424.01
2018-12-25T07:00:08.347Z,102419.32
2018-12-25T07:02:28.215Z,102424.13
2018-12-25T07:04:47.360Z,102414.47
2018-12-25T07:07:06.663Z,102417.93
2018-12-25T07:09:25.673Z,102410.34
2018-12-25T07:11:45.088Z,102407.82
2018-12-25T07:14:04.434Z,102406.59
2018-12-25T07:16:23.905Z,102403.45
2018-12-25T07:18:43.162Z,102408.08
2018-12-25T07:21:02.280Z,102409.28
2018-12-25T07:23:21.966Z,102419.88
2018-12-25T07:25:41.227Z,102421.42
2018-12-25T07:28:00.563Z,102423.03
2018-12-25T07:30:19.627Z,102427.50
2018-12-25T07:32:38.985Z,102423.47
2018-12-25T07:34:58.679Z,102431.05
2018-12-25T07:37:17.827Z,102430.64
2018-12-25T07:39:37.398Z,102428.62
2018-12-25T07:41:56.611Z,102427.94
2018-12-25T07:44:16.083Z,102429.55
2018-12-25T07:46:35.868Z,102414.34
2018-12-25T07:48:55.602Z,102437.38
2018-12-25T07:51:20.650Z,102433.89
2018-12-25T07:53:35.834Z,102434.58
2018-12-25T07:55:55.100Z,102434.70
2018-12-25T07:58:14.940Z,102416.90
2018-12-25T08:00:34.157Z,102434.14
2018-12-25T08:02:56.018Z,102428.16
2018-12-25T08:05:14.659Z,102428.98
2018-12-25T08:07:33.889Z,102419.19
2018-12-25T08:09:57.355Z,102420.98
2018-12-25T08:12:17.108Z,102419.38
2018-12-25T08:14:36.643Z,102418.68
2018-12-25T08:16:55.978Z,102421.35
2018-12-25T08:19:16.559Z,102431.36
2018-12-25T08:21:35.839Z,102422.45
2018-12-25T08:23:55.815Z,102424.70
2018-12-25T08:26:15.245Z,102407.58
2018-12-25T08:28:35.228Z,102418.05
2018-12-25T08:30:55.817Z,102429.82
2018-12-25T08:33:15.649Z,102420.78
2018-12-25T08:35:34.591Z,102425.63
2018-12-25T08:37:53.952Z,102425.01
2018-12-25T08:40:13.393Z,102427.80
2018-12-25T08:42:33.135Z,102420.11
2018-12-25T08:44:52.564Z,102422.75
2018-12-25T08:47:12.261Z,102415.42
2018-12-25T08:49:32.109Z,102406.84
2018-12-25T08:51:52.182Z,102408.16
2018-12-25T08:54:11.951Z,102406.11
2018-12-25T08:56:31.165Z,102403.59
2018-12-25T08:58:50.125Z,102402.73
2018-12-25T09:01:09.639Z,102403.73
2018-12-25T09:03:28.721Z,102401.15
2018-12-25T09:05:48.197Z,102416.23
2018-12-25T09:08:07.921Z,102417.47
2018-12-25T09:10:27.585Z,102422.72
2018-12-25T09:12:46.748Z,102424.48
2018-12-25T09:15:06.272Z,102408.14
2018-12-25T09:17:25.563Z,102433.64
2018-12-25T09:19:44.676Z,102439.31
2018-12-25T09:22:04.300Z,102436.58
2018-12-25T09:24:23.982Z,102438.30
2018-12-25T09:26:44.238Z,102438.62
2018-12-25T09:29:03.721Z,102442.84
2018-12-25T09:31:24.028Z,102445.70
2018-12-25T09:33:43.657Z,102439.45
2018-12-25T09:36:03.439Z,102445.81
2018-12-25T09:38:23.338Z,102452.13
2018-12-25T09:40:43.050Z,102449.40
2018-12-25T09:43:02.564Z,102453.95
2018-12-25T09:45:21.936Z,102445.61
2018-12-25T09:47:41.281Z,102443.16
2018-12-25T09:50:00.752Z,102445.52
2018-12-25T09:52:20.278Z,102450.05
2018-12-25T09:54:39.901Z,102454.05
2018-12-25T09:56:59.061Z,102455.47
2018-12-25T09:59:18.270Z,102446.06
2018-12-25T10:01:37.981Z,102446.64
2018-12-25T10:03:57.543Z,102444.17
2018-12-25T10:06:17.014Z,102428.88
2018-12-25T10:08:36.863Z,102434.71
2018-12-25T10:10:56.792Z,102450.34
2018-12-25T10:13:16.529Z,102447.98
2018-12-25T10:15:36.193Z,102458.98
2018-12-25T10:17:55.523Z,102456.10
2018-12-25T10:20:15.552Z,102457.95
2018-12-25T10:22:33.576Z,102460.55
2018-12-25T10:24:52.718Z,102473.94
2018-12-25T10:27:12.228Z,102478.40
2018-12-25T10:29:35.376Z,102477.62
2018-12-25T10:32:07.725Z,102470.42
2018-12-25T10:34:27.100Z,102464.42
2018-12-25T10:36:46.601Z,102468.00
2018-12-25T10:39:30.785Z,102460.78
2018-12-25T10:41:29.541Z,102461.31
2018-12-25T10:43:48.880Z,102457.98
2018-12-25T10:46:08.357Z,102451.66
2018-12-25T10:48:26.688Z,102449.63
2018-12-25T10:50:46.555Z,102447.14
2018-12-25T10:53:04.904Z,102452.48
2018-12-25T10:55:24.033Z,102450.87
2018-12-25T10:57:43.125Z,102445.00
2018-12-25T11:00:02.436Z,102402.69
2018-12-25T11:02:21.900Z,102437.53
2018-12-25T11:04:41.811Z,102445.41
2018-12-25T11:07:01.384Z,102440.36
2018-12-25T11:09:21.097Z,102437.44
2018-12-25T11:11:40.531Z,102431.09
2018-12-25T11:14:00.208Z,102432.06
2018-12-25T11:16:19.899Z,102403.33
2018-12-25T11:18:39.212Z,102424.03
2018-12-25T11:20:58.796Z,102415.44
2018-12-25T11:23:18.105Z,102412.52
2018-12-25T11:25:38.288Z,102375.62
2018-12-25T11:27:58.163Z,102388.02
2018-12-25T11:30:17.545Z,102392.86
2018-12-25T11:32:36.742Z,102391.69
2018-12-25T11:34:56.074Z,102383.09
2018-12-25T11:37:15.717Z,102376.67
2018-12-25T11:39:35.272Z,102356.39
2018-12-25T11:41:54.491Z,102339.02
2018-12-25T11:44:13.903Z,102347.41
2018-12-25T11:46:32.914Z,102352.72
2018-12-25T11:48:52.851Z,102337.20
2018-12-25T11:51:13.677Z,102332.95
2018-12-25T11:53:33.224Z,102330.45
2018-12-25T11:55:52.453Z,102321.81
2018-12-25T11:58:12.182Z,102326.20
2018-12-25T12:00:32.199Z,102307.06
2018-12-25T12:02:52.626Z,102321.13
2018-12-25T12:05:12.271Z,102335.03
2018-12-25T12:07:31.740Z,102323.38
2018-12-25T12:09:51.160Z,102318.66
2018-12-25T12:12:11.095Z,102326.06
2018-12-25T12:14:30.504Z,102330.42
2018-12-25T12:16:50.201Z,102332.20
2018-12-25T12:19:09.861Z,102337.02
2018-12-25T12:21:29.853Z,102338.80
2018-12-25T12:23:50.055Z,102338.37
2018-12-25T12:26:10.014Z,102330.64
2018-12-25T12:28:29.682Z,102338.05
2018-12-25T12:30:49.559Z,102340.68
2018-12-25T12:33:08.871Z,102344.22
2018-12-25T12:35:28.882Z,102348.18
2018-12-25T12:37:48.656Z,102305.00
2018-12-25T12:40:08.731Z,102339.16
2018-12-25T12:42:28.270Z,102343.52
2018-12-25T12:44:50.321Z,102337.05
2018-12-25T12:47:09.658Z,102336.20
2018-12-25T12:49:28.731Z,102338.80
2018-12-25T12:51:50.731Z,102332.72
2018-12-25T12:54:10.740Z,102326.16
2018-12-25T12:56:30.544Z,102340.12
2018-12-25T12:58:49.748Z,102339.73
2018-12-25T13:01:09.393Z,102332.38
2018-12-25T13:03:29.077Z,102316.59
2018-12-25T13:05:48.471Z,102339.36
2018-12-25T13:08:08.831Z,102336.78
2018-12-25T13:10:27.934Z,102344.20
2018-12-25T13:12:47.441Z,102337.72
2018-12-25T13:15:06.790Z,102340.31
2018-12-25T13:17:26.427Z,102339.08
2018-12-25T13:19:46.842Z,102298.47
2018-12-25T13:22:07.777Z,102339.55
2018-12-25T13:24:29.625Z,102337.40
2018-12-25T13:26:49.030Z,102336.92
2018-12-25T13:29:09.092Z,102338.70
2018-12-25T13:31:29.058Z,102343.03
2018-12-25T13:33:48.499Z,102346.06
2018-12-25T13:36:07.945Z,102335.56
2018-12-25T13:38:27.502Z,102324.68
2018-12-25T13:40:45.533Z,102348.71
2018-12-25T13:43:09.054Z,102347.41
2018-12-25T13:45:28.692Z,102353.52
2018-12-25T13:47:47.872Z,102357.84
2018-12-25T13:50:08.495Z,102323.35
2018-12-25T13:52:28.328Z,102356.58
2018-12-25T13:54:47.372Z,102353.09
2018-12-25T13:57:07.018Z,102357.42
2018-12-25T13:59:26.805Z,102358.72
2018-12-25T14:01:46.254Z,102362.20
2018-12-25T14:04:05.683Z,102354.83
2018-12-25T14:06:25.480Z,102365.69
2018-12-25T14:08:45.059Z,102366.14
2018-12-25T14:11:04.361Z,102363.95
2018-12-25T14:13:23.430Z,102363.95
2018-12-25T14:15:42.682Z,102360.91
2018-12-25T14:18:01.803Z,102367.42
2018-12-25T14:20:21.852Z,102369.14
2018-12-25T14:22:41.393Z,102366.95
2018-12-25T14:24:59.378Z,102380.43
2018-12-25T14:27:19.116Z,102379.98
2018-12-25T14:29:38.969Z,102384.34
2018-12-25T14:31:57.087Z,102389.48
2018-12-25T14:34:16.687Z,102367.25
2018-12-25T14:36:36.125Z,102386.45
2018-12-25T14:38:56.057Z,102382.13
2018-12-25T14:41:15.674Z,102381.67
2018-12-25T14:43:35.489Z,102379.52
2018-12-25T14:45:55.166Z,102375.14
2018-12-25T14:48:14.916Z,102383.38
2018-12-25T14:50:34.354Z,102388.98
2018-12-25T14:52:54.365Z,102380.72
2018-12-25T14:55:14.282Z,102385.47
2018-12-25T14:57:34.077Z,102385.86
2018-12-25T14:59:51.984Z,102394.09
2018-12-25T15:02:11.451Z,102390.62
2018-12-25T15:04:30.621Z,102376.16
2018-12-25T15:06:48.596Z,102378.85
2018-12-25T15:09:07.698Z,102371.34
2018-12-25T15:11:27.319Z,102384.42
2018-12-25T15:13:46.905Z,102385.72
2018-12-25T15:16:06.465Z,102389.59
2018-12-25T15:18:26.023Z,102389.11
2018-12-25T15:20:45.122Z,102397.34
2018-12-25T15:23:04.313Z,102400.78
2018-12-25T15:25:23.623Z,102402.91
2018-12-25T15:27:42.857Z,102400.70
2018-12-25T15:30:01.855Z,102404.56
2018-12-25T15:32:21.394Z,102402.33
2018-12-25T15:34:42.135Z,102400.08
2018-12-25T15:37:02.797Z,102407.78
2018-12-25T15:39:22.486Z,102396.73
2018-12-25T15:41:41.864Z,102405.02
2018-12-25T15:44:01.102Z,102402.80
2018-12-25T15:46:20.671Z,102402.70
2018-12-25T15:48:39.875Z,102401.72
2018-12-25T15:50:59.065Z,102399.47
2018-12-25T15:53:19.675Z,102402.00
2018-12-25T15:55:39.301Z,102402.80
2018-12-25T15:57:59.206Z,102402.23
2018-12-25T16:00:19.564Z,102406.94
2018-12-25T16:02:38.757Z,102405.11
2018-12-25T16:04:58.389Z,102404.14
2018-12-25T16:07:17.426Z,102407.09
2018-12-25T16:09:36.875Z,102402.69
2018-12-25T16:11:56.727Z,102400.02
2018-12-25T16:14:16.104Z,102406.02
2018-12-25T16:16:35.246Z,102412.51
2018-12-25T16:18:55.124Z,102409.95
2018-12-25T16:21:15.096Z,102409.98
2018-12-25T16:23:35.629Z,102409.56
2018-12-25T16:25:55.610Z,102409.11
2018-12-25T16:28:13.754Z,102409.11
2018-12-25T16:30:33.154Z,102416.02
2018-12-25T16:32:52.778Z,102403.88
2018-12-25T16:35:11.045Z,102401.58
2018-12-25T16:37:30.430Z,102388.89
2018-12-25T16:39:50.036Z,102390.48
2018-12-25T16:42:09.458Z,102387.77
2018-12-25T16:44:29.078Z,102389.02
2018-12-25T16:46:48.569Z,102388.97
2018-12-25T16:49:08.453Z,102391.03
2018-12-25T16:51:28.680Z,102389.23
2018-12-25T16:53:53.510Z,102367.23
2018-12-25T16:56:08.854Z,102392.16
2018-12-25T16:58:28.518Z,102392.61
2018-12-25T17:00:48.322Z,102382.48
2018-12-25T17:03:07.751Z,102396.09
2018-12-25T17:07:47.059Z,102392.86
2018-12-25T17:10:34.398Z,102395.73
2018-12-25T17:12:53.610Z,102392.13
2018-12-25T17:15:13.354Z,102384.59
2018-12-25T17:17:32.805Z,102385.33
2018-12-25T17:19:50.904Z,102393.48
2018-12-25T17:22:10.190Z,102389.97
2018-12-25T17:24:30.019Z,102385.57
2018-12-25T17:26:48.232Z,102382.97
2018-12-25T17:29:07.470Z,102384.64
2018-12-25T17:31:27.238Z,102385.48
2018-12-25T17:33:35.099Z,102361.42
2018-12-25T17:35:54.879Z,102372.81
2018-12-25T17:38:14.364Z,102370.96
2018-12-25T17:40:34.075Z,102379.94
2018-12-25T17:42:53.902Z,102364.88
2018-12-25T17:45:13.337Z,102391.98
2018-12-25T17:47:32.934Z,102386.70
2018-12-25T17:49:52.819Z,102389.28
2018-12-25T17:52:12.714Z,102382.77
2018-12-25T17:54:31.783Z,102389.28
2018-12-25T17:56:51.514Z,102391.52
2018-12-25T17:59:10.660Z,102367.62
2018-12-25T18:01:30.643Z,102386.06
2018-12-25T18:03:51.418Z,102363.78
2018-12-25T18:06:11.822Z,102393.10
2018-12-25T18:08:19.616Z,102379.30
2018-12-25T18:10:39.106Z,102374.12
2018-12-25T18:12:58.271Z,102366.77
2018-12-25T18:15:17.719Z,102344.75
2018-12-25T18:17:25.501Z,102373.47
2018-12-25T18:19:44.994Z,102374.06
2018-12-25T18:22:04.522Z,102357.22
2018-12-25T18:24:24.727Z,102374.01
2018-12-25T18:26:44.400Z,102372.94
2018-12-25T18:29:04.354Z,102358.95
2018-12-25T18:31:23.685Z,102352.45
2018-12-25T18:33:43.155Z,102362.11
2018-12-25T18:36:02.644Z,102354.80
2018-12-25T18:38:22.192Z,102336.03
2018-12-25T18:40:41.255Z,102342.25
2018-12-25T18:43:00.568Z,102325.47
2018-12-25T18:45:20.940Z,102322.82
2018-12-25T18:47:40.936Z,102349.92
2018-12-25T18:50:00.210Z,102348.67
2018-12-25T18:52:20.395Z,102352.61
2018-12-25T18:54:39.810Z,102348.31
2018-12-25T18:56:59.459Z,102333.86
2018-12-25T18:59:19.877Z,102348.73
2018-12-25T19:01:39.419Z,102342.25
2018-12-25T19:03:58.516Z,102340.95
2018-12-25T19:06:18.148Z,102350.74
2018-12-25T19:08:37.753Z,102315.63
2018-12-25T19:10:57.232Z,102341.27
2018-12-25T19:13:16.490Z,102341.00
2018-12-25T19:15:36.590Z,102343.36
2018-12-25T19:17:56.947Z,102334.62
2018-12-25T19:20:16.056Z,102326.85
2018-12-25T19:22:35.524Z,102325.09
2018-12-25T19:24:55.315Z,102323.27
2018-12-25T19:27:14.486Z,102326.27
2018-12-25T19:29:33.875Z,102319.69
2018-12-25T19:31:53.644Z,102337.77
2018-12-25T19:34:12.791Z,102332.52
2018-12-25T19:36:32.517Z,102339.24
2018-12-25T19:38:51.636Z,102306.09
2018-12-25T19:41:11.155Z,102336.30
2018-12-25T19:43:31.098Z,102349.19
2018-12-25T19:46:07.047Z,102324.14
2018-12-25T19:48:28.661Z,102346.02
2018-12-25T19:51:08.595Z,102343.53
2018-12-25T19:53:19.016Z,102335.89
2018-12-25T19:55:30.580Z,102329.08
2018-12-25T19:58:21.505Z,102330.08
2018-12-25T20:00:40.802Z,102326.31
2018-12-25T20:03:07.829Z,102327.30
2018-12-25T20:08:59.888Z,102332.95
2018-12-25T20:11:41.083Z,102326.95
2018-12-25T20:17:17.503Z,102339.94
2018-12-25T20:23:10.166Z,102330.47
2018-12-25T20:26:40.933Z,102324.94
2018-12-25T20:29:22.154Z,102323.70
2018-12-25T20:32:01.172Z,102296.55
2018-12-25T20:34:59.135Z,102307.17
2018-12-25T20:37:52.518Z,102312.06
2018-12-25T20:41:11.534Z,102303.82
2018-12-25T20:44:21.321Z,102305.48
2018-12-25T20:53:19.461Z,102315.37
2018-12-25T21:08:32.338Z,102310.61
2018-12-25T21:14:19.439Z,102312.13
2018-12-25T21:17:33.973Z,102292.09
2018-12-25T21:20:12.852Z,102299.56
2018-12-25T21:22:58.019Z,102302.50
2018-12-25T21:25:54.917Z,102304.97
2018-12-25T21:28:21.079Z,102271.06
2018-12-25T21:30:58.879Z,102295.58
2018-12-25T21:33:27.467Z,102287.63
2018-12-25T21:36:00.244Z,102289.21
2018-12-25T21:38:21.423Z,102287.52
2018-12-25T21:40:48.328Z,102273.81
2018-12-25T21:43:19.433Z,102279.05
2018-12-25T21:45:39.728Z,102280.88
2018-12-25T21:47:59.381Z,102282.62
2018-12-25T21:50:20.793Z,102285.98
2018-12-25T21:52:41.980Z,102257.78
2018-12-25T21:55:02.266Z,102291.28
2018-12-25T21:57:42.032Z,102274.28
2018-12-25T21:59:57.877Z,102296.83
2018-12-25T22:02:17.524Z,102305.57
2018-12-25T22:04:40.457Z,102308.80
2018-12-25T22:07:08.806Z,102289.03
2018-12-25T22:09:28.272Z,102301.10
2018-12-25T22:11:47.930Z,102299.47
2018-12-25T22:14:08.611Z,102290.50
2018-12-25T22:16:28.422Z,102298.66
2018-12-25T22:18:48.052Z,102298.23
2018-12-25T22:21:08.417Z,102271.89
2018-12-25T22:23:31.134Z,102301.25
2018-12-25T22:26:11.309Z,102290.91
2018-12-25T22:28:31.216Z,102288.90
2018-12-25T22:30:51.166Z,102287.68
2018-12-25T22:33:11.929Z,102294.27
2018-12-25T22:35:33.086Z,102290.98
2018-12-25T22:37:52.803Z,102286.40
2018-12-25T22:40:13.953Z,102286.05
2018-12-25T22:42:33.557Z,102279.23
2018-12-25T22:44:54.175Z,102277.47
2018-12-25T22:47:13.401Z,102286.11
2018-12-25T22:52:17.944Z,102294.74
2018-12-25T22:54:37.215Z,102297.28
2018-12-25T22:56:58.665Z,102273.17
2018-12-25T22:59:19.180Z,102290.10
2018-12-25T23:02:08.056Z,102305.84
2018-12-25T23:04:29.324Z,102309.25
2018-12-25T23:06:51.176Z,102313.94
2018-12-25T23:09:14.346Z,102317.72
2018-12-25T23:11:35.652Z,102302.18
2018-12-25T23:13:59.102Z,102322.22
2018-12-25T23:16:35.035Z,102322.09
2018-12-25T23:21:37.695Z,102311.98
2018-12-25T23:23:58.384Z,102311.70
2018-12-25T23:26:18.860Z,102310.59
2018-12-25T23:28:37.945Z,102301.61
2018-12-25T23:30:58.745Z,102304.32
2018-12-25T23:33:46.275Z,102311.84
2018-12-25T23:36:07.624Z,102311.97
2018-12-25T23:38:27.997Z,102309.50
2018-12-25T23:40:50.074Z,102304.44
2018-12-25T23:43:16.654Z,102298.45
2018-12-25T23:45:49.704Z,102284.81
2018-12-25T23:48:09.183Z,102280.11
2018-12-25T23:50:29.230Z,102277.86
2018-12-25T23:52:49.634Z,102279.47
2018-12-25T23:55:08.911Z,102271.17
2018-12-25T23:57:32.891Z,102276.00
